TimeMDT,TemperatureF,Dew PointF,Humidity,Sea Level PressureIn,VisibilityMPH,Wind Direction,Wind SpeedMPH,Gust SpeedMPH,PrecipitationIn,Events,Conditions,WindDirDegrees,DateUTC
12:56 AM,51.1,32.0,48,29.77,10.0,WSW,8.1,18.4,N/A,,Clear,250,2013-06-20 06:56:00
1:56 AM,42.1,35.1,76,29.78,10.0,ENE,4.6,-,N/A,,Clear,70,2013-06-20 07:56:00
2:56 AM,51.1,30.9,46,29.76,10.0,West,10.4,-,N/A,,Partly Cloudy,260,2013-06-20 08:56:00
3:56 AM,50.0,32.0,50,29.75,10.0,WSW,8.1,-,N/A,,Partly Cloudy,240,2013-06-20 09:56:00
4:56 AM,45.0,33.1,63,29.78,10.0,Calm,Calm,-,N/A,,Clear,0,2013-06-20 10:56:00
5:56 AM,51.1,30.0,44,29.83,10.0,West,12.7,-,N/A,,Mostly Cloudy,260,2013-06-20 11:56:00
6:56 AM,50.0,32.0,50,29.86,10.0,WSW,9.2,-,N/A,,Overcast,240,2013-06-20 12:56:00
7:56 AM,51.1,33.1,50,29.88,10.0,South,9.2,-,N/A,,Mostly Cloudy,180,2013-06-20 13:56:00
8:56 AM,55.9,30.0,37,29.87,10.0,SW,12.7,21.9,N/A,,Overcast,230,2013-06-20 14:56:00
9:56 AM,55.9,28.9,36,29.88,10.0,SW,15.0,-,N/A,,Overcast,230,2013-06-20 15:56:00
10:56 AM,57.0,28.9,34,29.90,10.0,SSW,10.4,-,N/A,,Overcast,210,2013-06-20 16:56:00
11:56 AM,57.0,33.1,40,29.92,10.0,West,17.3,27.6,N/A,,Overcast,260,2013-06-20 17:56:00
12:56 PM,59.0,30.9,35,29.93,10.0,West,13.8,-,N/A,,Overcast,280,2013-06-20 18:56:00
1:56 PM,57.9,34.0,41,29.96,10.0,East,9.2,-,N/A,,Mostly Cloudy,100,2013-06-20 19:56:00
2:56 PM,60.1,35.1,39,29.92,10.0,SE,8.1,-,0.00,,Mostly Cloudy,130,2013-06-20 20:56:00
3:56 PM,64.9,34.0,32,29.90,10.0,Variable,3.5,-,N/A,,Mostly Cloudy,0,2013-06-20 21:56:00
4:56 PM,64.0,28.0,26,29.91,10.0,Variable,5.8,-,N/A,,Mostly Cloudy,0,2013-06-20 22:56:00
5:56 PM,66.0,25.0,21,29.89,10.0,SW,11.5,-,N/A,,Scattered Clouds,220,2013-06-20 23:56:00
6:56 PM,66.0,27.0,23,29.90,10.0,WSW,8.1,-,N/A,,Partly Cloudy,240,2013-06-21 00:56:00
7:56 PM,64.9,28.0,25,29.90,10.0,West,6.9,-,N/A,,Scattered Clouds,260,2013-06-21 01:56:00
8:56 PM,55.0,34.0,45,29.94,10.0,NNW,8.1,-,N/A,,Partly Cloudy,330,2013-06-21 02:56:00
9:56 PM,50.0,37.0,61,29.99,10.0,ENE,4.6,-,N/A,,Overcast,70,2013-06-21 03:56:00
10:56 PM,50.0,34.0,54,30.00,10.0,Calm,Calm,-,N/A,,Scattered Clouds,0,2013-06-21 04:56:00
11:56 PM,48.0,36.0,63,30.01,10.0,West,6.9,-,N/A,,Clear,260,2013-06-21 05:56:00